createdAt,value
2017-07-24T00:00:32.226Z,0
2017-07-24T00:01:32.209Z,0
2017-07-24T00:02:32.222Z,0
2017-07-24T00:03:32.215Z,0
2017-07-24T00:04:32.223Z,0
2017-07-24T00:05:32.198Z,0
2017-07-24T00:06:32.216Z,0
2017-07-24T00:07:32.197Z,0
2017-07-24T00:08:32.211Z,0
2017-07-24T00:09:32.187Z,0
2017-07-24T00:10:32.207Z,0
2017-07-24T00:11:32.185Z,0
2017-07-24T00:12:31.892Z,0
2017-07-24T00:13:32.169Z,0
2017-07-24T00:14:32.187Z,0
2017-07-24T00:15:31.874Z,0
2017-07-24T00:16:32.169Z,0
2017-07-24T00:17:31.860Z,0
2017-07-24T00:18:32.155Z,0
2017-07-24T00:19:32.164Z,0
2017-07-24T00:20:32.166Z,0
2017-07-24T00:21:32.161Z,0
2017-07-24T00:22:32.131Z,0
2017-07-24T00:23:32.153Z,0
2017-07-24T00:24:32.115Z,0
2017-07-24T00:25:32.138Z,0
2017-07-24T00:26:32.129Z,0
2017-07-24T00:27:32.147Z,0
2017-07-24T00:28:32.131Z,0
2017-07-24T00:29:32.124Z,0
2017-07-24T00:30:32.126Z,0
2017-07-24T00:31:32.128Z,0
2017-07-24T00:32:32.128Z,0
2017-07-24T00:33:32.095Z,0
2017-07-24T00:34:32.110Z,0
2017-07-24T00:35:32.122Z,0
2017-07-24T00:36:31.800Z,0
2017-07-24T00:37:32.107Z,0
2017-07-24T00:38:32.082Z,0
2017-07-24T00:39:32.108Z,0
2017-07-24T00:40:32.091Z,0
2017-07-24T00:41:32.097Z,0
2017-07-24T00:42:32.072Z,0
2017-07-24T00:43:32.095Z,0
2017-07-24T00:44:32.075Z,0
2017-07-24T00:45:32.096Z,0
2017-07-24T00:46:32.059Z,0
2017-07-24T00:47:32.065Z,0
2017-07-24T00:48:32.066Z,0
2017-07-24T00:49:31.766Z,0
2017-07-24T00:50:32.065Z,0
2017-07-24T00:51:31.739Z,0
2017-07-24T00:52:31.751Z,0
2017-07-24T00:53:32.061Z,0
2017-07-24T00:54:32.034Z,0
2017-07-24T00:55:32.042Z,0
2017-07-24T00:56:32.040Z,0
2017-07-24T00:57:32.045Z,0
2017-07-24T00:58:31.703Z,0
2017-07-24T00:59:32.043Z,0
2017-07-24T01:00:32.029Z,0
2017-07-24T01:01:32.043Z,0
2017-07-24T01:02:32.020Z,0
2017-07-24T01:03:32.038Z,0
2017-07-24T01:04:31.996Z,0
2017-07-24T01:05:32.016Z,0
2017-07-24T01:06:32.002Z,0
2017-07-24T01:07:32.003Z,0
2017-07-24T01:08:31.999Z,0
2017-07-24T01:09:31.702Z,0
2017-07-24T01:10:31.977Z,0
2017-07-24T01:11:31.993Z,0
2017-07-24T01:12:31.664Z,0
2017-07-24T01:13:31.995Z,0
2017-07-24T01:14:31.974Z,0
2017-07-24T01:15:31.985Z,0
2017-07-24T01:16:31.656Z,0
2017-07-24T01:17:31.990Z,0
2017-07-24T01:18:31.942Z,0
2017-07-24T01:19:31.959Z,0
2017-07-24T01:20:31.642Z,0
2017-07-24T01:21:31.953Z,0
2017-07-24T01:22:31.945Z,0
2017-07-24T01:23:31.949Z,0
2017-07-24T01:24:31.930Z,0
2017-07-24T01:25:31.949Z,0
2017-07-24T01:26:31.925Z,0
2017-07-24T01:27:31.946Z,0
2017-07-24T01:28:31.921Z,0
2017-07-24T01:29:31.932Z,0
2017-07-24T01:30:31.918Z,0
2017-07-24T01:31:31.926Z,0
2017-07-24T01:32:31.922Z,0
2017-07-24T01:33:31.925Z,0
2017-07-24T01:34:31.870Z,0
2017-07-24T01:35:31.895Z,0
2017-07-24T01:36:31.866Z,0
2017-07-24T01:37:31.899Z,0
2017-07-24T01:38:31.888Z,0
2017-07-24T01:39:31.872Z,0
2017-07-24T01:40:31.867Z,0
2017-07-24T01:41:31.857Z,0
2017-07-24T01:42:31.879Z,0
2017-07-24T01:43:31.549Z,0
2017-07-24T01:44:31.844Z,0
2017-07-24T01:45:31.854Z,0
2017-07-24T01:46:31.843Z,0
2017-07-24T01:47:31.860Z,0
2017-07-24T01:48:31.843Z,0
2017-07-24T01:49:31.842Z,0
2017-07-24T01:50:31.839Z,0
2017-07-24T01:51:31.832Z,0
2017-07-24T01:52:31.199Z,0
2017-07-24T01:53:31.843Z,0
2017-07-24T01:54:31.823Z,0
2017-07-24T01:55:31.505Z,0
2017-07-24T01:56:31.800Z,0
2017-07-24T01:57:31.814Z,0
2017-07-24T01:58:32.108Z,0
2017-07-24T01:59:31.794Z,0
2017-07-24T02:00:31.806Z,0
2017-07-24T02:01:31.459Z,0
2017-07-24T02:02:31.795Z,0
2017-07-24T02:03:31.767Z,0
2017-07-24T02:04:31.476Z,0
2017-07-24T02:05:31.759Z,0
2017-07-24T02:06:31.777Z,0
2017-07-24T02:07:31.456Z,0
2017-07-24T02:08:31.762Z,0
2017-07-24T02:09:31.754Z,0
2017-07-24T02:10:31.760Z,0
2017-07-24T02:11:31.743Z,0
2017-07-24T02:12:31.737Z,0
2017-07-24T02:13:31.976Z,0
2017-07-24T02:14:31.744Z,0
2017-07-24T02:15:31.741Z,0
2017-07-24T02:16:31.739Z,0
2017-07-24T02:17:31.746Z,0
2017-07-24T02:18:31.419Z,0
2017-07-24T02:19:31.713Z,0
2017-07-24T02:20:31.738Z,0
2017-07-24T02:21:31.690Z,0
2017-07-24T02:22:31.718Z,0
2017-07-24T02:23:31.388Z,0
2017-07-24T02:24:31.413Z,0
2017-07-24T02:25:31.386Z,0
2017-07-24T02:26:31.684Z,0
2017-07-24T02:27:31.690Z,0
2017-07-24T02:28:31.693Z,0
2017-07-24T02:29:31.681Z,0
2017-07-24T02:30:31.685Z,0
2017-07-24T02:31:31.353Z,0
2017-07-24T02:32:31.650Z,0
2017-07-24T02:33:31.678Z,4
2017-07-24T02:34:31.653Z,4
2017-07-24T02:35:31.654Z,4
2017-07-24T02:36:31.646Z,0
2017-07-24T02:37:31.655Z,4
2017-07-24T02:38:31.648Z,4
2017-07-24T02:39:31.635Z,8
2017-07-24T02:40:31.647Z,4
2017-07-24T02:41:31.306Z,8
2017-07-24T02:42:31.600Z,8
2017-07-24T02:43:31.626Z,8
2017-07-24T02:44:31.630Z,8
2017-07-24T02:45:31.622Z,12
2017-07-24T02:46:31.593Z,12
2017-07-24T02:47:31.609Z,16
2017-07-24T02:48:31.599Z,20
2017-07-24T02:49:31.585Z,20
2017-07-24T02:50:31.590Z,24
2017-07-24T02:51:31.602Z,28
2017-07-24T02:52:31.284Z,32
2017-07-24T02:53:31.552Z,36
2017-07-24T02:54:31.581Z,44
2017-07-24T02:55:31.611Z,48
2017-07-24T02:56:31.571Z,56
2017-07-24T02:57:31.236Z,60
2017-07-24T02:58:31.238Z,68
2017-07-24T02:59:31.248Z,76
2017-07-24T03:00:31.566Z,84
2017-07-24T03:01:31.231Z,92
2017-07-24T03:02:31.548Z,108
2017-07-24T03:03:31.524Z,120
2017-07-24T03:04:31.540Z,132
2017-07-24T03:05:31.516Z,144
2017-07-24T03:06:31.535Z,160
2017-07-24T03:07:31.501Z,176
2017-07-24T03:08:31.514Z,192
2017-07-24T03:09:31.180Z,212
2017-07-24T03:10:31.203Z,232
2017-07-24T03:11:31.505Z,252
2017-07-24T03:12:31.502Z,272
2017-07-24T03:13:31.489Z,292
2017-07-24T03:14:31.482Z,316
2017-07-24T03:15:31.477Z,340
2017-07-24T03:16:31.478Z,372
2017-07-24T03:17:31.491Z,396
2017-07-24T03:18:31.470Z,424
2017-07-24T03:19:31.467Z,456
2017-07-24T03:20:31.453Z,488
2017-07-24T03:21:31.478Z,524
2017-07-24T03:22:31.438Z,568
2017-07-24T03:23:31.457Z,612
2017-07-24T03:24:31.435Z,664
2017-07-24T03:25:31.447Z,716
2017-07-24T03:26:31.440Z,764
2017-07-24T03:27:31.434Z,800
2017-07-24T03:28:31.413Z,832
2017-07-24T03:29:31.412Z,872
2017-07-24T03:30:31.411Z,912
2017-07-24T03:31:31.409Z,956
2017-07-24T03:32:31.406Z,992
2017-07-24T03:33:31.416Z,1040
2017-07-24T03:34:31.387Z,1096
2017-07-24T03:35:31.397Z,1148
2017-07-24T03:36:31.383Z,1208
2017-07-24T03:37:31.398Z,1276
2017-07-24T03:38:31.668Z,1336
2017-07-24T03:39:31.388Z,1376
2017-07-24T03:40:31.365Z,1412
2017-07-24T03:41:30.754Z,1456
2017-07-24T03:42:31.343Z,1496
2017-07-24T03:43:31.049Z,1536
2017-07-24T03:44:31.359Z,1588
2017-07-24T03:45:31.366Z,1648
2017-07-24T03:46:31.358Z,1712
2017-07-24T03:47:31.331Z,1788
2017-07-24T03:48:31.325Z,1864
2017-07-24T03:49:31.321Z,1944
2017-07-24T03:50:31.347Z,2028
2017-07-24T03:51:30.703Z,2096
2017-07-24T03:52:30.732Z,2184
2017-07-24T03:53:31.320Z,2260
2017-07-24T03:54:30.673Z,2336
2017-07-24T03:55:31.314Z,2428
2017-07-24T03:56:31.300Z,2516
2017-07-24T03:57:30.993Z,2628
2017-07-24T03:58:31.264Z,2748
2017-07-24T03:59:30.663Z,2900
2017-07-24T04:00:30.974Z,3428
2017-07-24T04:01:31.281Z,4060
2017-07-24T04:02:31.281Z,4580
2017-07-24T04:03:30.949Z,4856
2017-07-24T04:04:31.269Z,5132
2017-07-24T04:05:30.941Z,5408
2017-07-24T04:06:31.268Z,5732
2017-07-24T04:07:30.946Z,5904
2017-07-24T04:08:30.951Z,6036
2017-07-24T04:09:30.929Z,5916
2017-07-24T04:10:30.939Z,5760
2017-07-24T04:11:30.911Z,5916
2017-07-24T04:12:31.241Z,5932
2017-07-24T04:13:31.214Z,6392
2017-07-24T04:14:31.241Z,6908
2017-07-24T04:15:31.218Z,7172
2017-07-24T04:16:31.231Z,6196
2017-07-24T04:17:31.201Z,6268
2017-07-24T04:18:31.217Z,6972
2017-07-24T04:19:31.200Z,6980
2017-07-24T04:20:31.209Z,5824
2017-07-24T04:21:31.205Z,5240
2017-07-24T04:22:31.215Z,5112
2017-07-24T04:23:31.206Z,4660
2017-07-24T04:24:31.203Z,4464
2017-07-24T04:25:31.195Z,4368
2017-07-24T04:26:31.191Z,4620
2017-07-24T04:27:31.191Z,6276
2017-07-24T04:28:31.205Z,6632
2017-07-24T04:29:30.869Z,6392
2017-07-24T04:30:31.206Z,5544
2017-07-24T04:31:31.202Z,5740
2017-07-24T04:32:31.201Z,4800
2017-07-24T04:33:31.202Z,4836
2017-07-24T04:34:31.208Z,4920
2017-07-24T04:35:31.201Z,5008
2017-07-24T04:36:30.876Z,5392
2017-07-24T04:37:31.196Z,5596
2017-07-24T04:38:31.209Z,6120
2017-07-24T04:39:31.198Z,6500
2017-07-24T04:40:30.582Z,6488
2017-07-24T04:41:31.193Z,6912
2017-07-24T04:42:30.897Z,7136
2017-07-24T04:43:31.204Z,7360
2017-07-24T04:44:30.877Z,8268
2017-07-24T04:45:30.900Z,7432
2017-07-24T04:46:30.872Z,9148
2017-07-24T04:47:31.186Z,9300
2017-07-24T04:48:30.889Z,9936
2017-07-24T04:49:31.199Z,12032
2017-07-24T04:50:30.891Z,15200
2017-07-24T04:51:30.563Z,12224
2017-07-24T04:52:31.177Z,12740
2017-07-24T04:53:31.189Z,14016
2017-07-24T04:54:30.896Z,12024
2017-07-24T04:55:31.199Z,10968
2017-07-24T04:56:31.207Z,8992
2017-07-24T04:57:31.182Z,9360
2017-07-24T04:58:31.204Z,10188
2017-07-24T04:59:30.569Z,9228
2017-07-24T05:00:30.895Z,9900
2017-07-24T05:01:31.193Z,12144
2017-07-24T05:02:30.602Z,11644
2017-07-24T05:03:31.230Z,9936
2017-07-24T05:04:31.199Z,10412
2017-07-24T05:05:31.195Z,12788
2017-07-24T05:06:31.203Z,15616
2017-07-24T05:07:31.205Z,19360
2017-07-24T05:08:31.245Z,17504
2017-07-24T05:09:31.194Z,15232
2017-07-24T05:10:31.217Z,14076
2017-07-24T05:11:31.223Z,11700
2017-07-24T05:12:31.226Z,10368
2017-07-24T05:13:31.233Z,9860
2017-07-24T05:14:30.930Z,10096
2017-07-24T05:15:31.207Z,11244
2017-07-24T05:16:31.242Z,12108
2017-07-24T05:17:31.219Z,15296
2017-07-24T05:18:31.248Z,14692
2017-07-24T05:19:30.936Z,13784
2017-07-24T05:20:31.241Z,14448
2017-07-24T05:21:31.228Z,14492
2017-07-24T05:22:31.221Z,14572
2017-07-24T05:23:31.244Z,15008
2017-07-24T05:24:31.250Z,16288
2017-07-24T05:25:31.268Z,16576
2017-07-24T05:26:31.253Z,17088
2017-07-24T05:27:31.278Z,17088
2017-07-24T05:28:31.234Z,16832
2017-07-24T05:29:31.297Z,16768
2017-07-24T05:30:31.241Z,16832
2017-07-24T05:31:31.275Z,19552
2017-07-24T05:32:31.272Z,21312
2017-07-24T05:33:31.285Z,19648
2017-07-24T05:34:31.266Z,18752
2017-07-24T05:35:31.294Z,14820
2017-07-24T05:36:31.296Z,13528
2017-07-24T05:37:31.279Z,14028
2017-07-24T05:38:31.291Z,15520
2017-07-24T05:39:31.292Z,16096
2017-07-24T05:40:30.988Z,14860
2017-07-24T05:41:31.011Z,16128
2017-07-24T05:42:31.309Z,15872
2017-07-24T05:43:31.005Z,14684
2017-07-24T05:44:31.002Z,13448
2017-07-24T05:45:31.336Z,12792
2017-07-24T05:46:31.317Z,12520
2017-07-24T05:47:31.355Z,12564
2017-07-24T05:48:31.343Z,12304
2017-07-24T05:49:31.342Z,12132
2017-07-24T05:50:31.013Z,12068
2017-07-24T05:51:31.040Z,12280
2017-07-24T05:52:31.332Z,12440
2017-07-24T05:53:31.053Z,12924
2017-07-24T05:54:31.363Z,13464
2017-07-24T05:55:31.343Z,13616
2017-07-24T05:56:31.353Z,13724
2017-07-24T05:57:31.341Z,13988
2017-07-24T05:58:31.067Z,14860
2017-07-24T05:59:30.442Z,14236
2017-07-24T06:00:31.057Z,14640
2017-07-24T06:01:31.392Z,14888
2017-07-24T06:02:31.376Z,14860
2017-07-24T06:03:31.096Z,15904
2017-07-24T06:04:31.073Z,17568
2017-07-24T06:05:31.080Z,19488
2017-07-24T06:06:31.077Z,20192
2017-07-24T06:07:30.788Z,20512
2017-07-24T06:08:31.393Z,20800
2017-07-24T06:09:31.419Z,23936
2017-07-24T06:10:31.096Z,23616
2017-07-24T06:11:31.090Z,22752
2017-07-24T06:12:31.420Z,22016
2017-07-24T06:13:31.393Z,23296
2017-07-24T06:14:30.812Z,24576
2017-07-24T06:15:31.421Z,23872
2017-07-24T06:16:31.436Z,25088
2017-07-24T06:17:31.425Z,25504
2017-07-24T06:18:31.448Z,24448
2017-07-24T06:19:31.425Z,25120
2017-07-24T06:20:31.455Z,23520
2017-07-24T06:21:31.132Z,25120
2017-07-24T06:22:31.155Z,28928
2017-07-24T06:23:31.170Z,28768
2017-07-24T06:24:31.152Z,27232
2017-07-24T06:25:31.461Z,25984
2017-07-24T06:26:31.486Z,24352
2017-07-24T06:27:31.481Z,23488
2017-07-24T06:28:31.482Z,22528
2017-07-24T06:29:31.484Z,23840
2017-07-24T06:30:31.520Z,24288
2017-07-24T06:31:31.504Z,23296
2017-07-24T06:32:31.528Z,26560
2017-07-24T06:33:31.504Z,24576
2017-07-24T06:34:31.531Z,20608
2017-07-24T06:35:31.531Z,17472
2017-07-24T06:36:31.550Z,17056
2017-07-24T06:37:33.330Z,21504
2017-07-24T06:38:31.264Z,27040
2017-07-24T06:39:31.581Z,37568
2017-07-24T06:40:31.262Z,41056
2017-07-24T06:41:31.571Z,35552
2017-07-24T06:42:31.586Z,29312
2017-07-24T06:43:31.614Z,27264
2017-07-24T06:44:30.990Z,30208
2017-07-24T06:45:31.316Z,30528
2017-07-24T06:46:31.607Z,32352
2017-07-24T06:47:31.648Z,39872
2017-07-24T06:48:31.628Z,48896
2017-07-24T06:49:31.672Z,44544
2017-07-24T06:50:31.342Z,52832
2017-07-24T06:51:31.686Z,52736
2017-07-24T06:52:31.686Z,48960
2017-07-24T06:53:31.700Z,39264
2017-07-24T06:54:31.724Z,46464
2017-07-24T06:55:31.421Z,53728
2017-07-24T06:56:31.414Z,63008
2017-07-24T06:57:31.423Z,71200
2017-07-24T06:58:31.441Z,72608
2017-07-24T06:59:31.456Z,59168
2017-07-24T07:00:31.460Z,48480
2017-07-24T07:01:31.482Z,44384
2017-07-24T07:02:31.470Z,42496
2017-07-24T07:03:31.817Z,47072
2017-07-24T07:04:31.483Z,46176
2017-07-24T07:05:31.828Z,44992
2017-07-24T07:06:31.827Z,47136
2017-07-24T07:07:31.562Z,46688
2017-07-24T07:08:31.868Z,48192
2017-07-24T07:09:31.256Z,51360
2017-07-24T07:10:31.569Z,45632
2017-07-24T07:12:31.620Z,43360
2017-07-24T07:13:31.936Z,46368
2017-07-24T07:14:31.647Z,46080
2017-07-24T07:15:31.648Z,48864
2017-07-24T07:16:31.659Z,46336
2017-07-24T07:17:31.666Z,50656
2017-07-24T07:18:31.689Z,48640
2017-07-24T07:19:32.314Z,47168
2017-07-24T07:20:31.684Z,48224
2017-07-24T07:21:32.008Z,45440
2017-07-24T07:22:32.048Z,43808
2017-07-24T07:23:32.061Z,41312
2017-07-24T07:24:32.083Z,42848
2017-07-24T07:25:32.081Z,42976
2017-07-24T07:26:31.799Z,43680
2017-07-24T07:27:32.105Z,42720
2017-07-24T07:28:32.155Z,43808
2017-07-24T07:29:31.826Z,40992
2017-07-24T07:30:32.162Z,32352
2017-07-24T07:31:31.853Z,26944
2017-07-24T07:32:32.196Z,23392
2017-07-24T07:33:32.176Z,19648
2017-07-24T07:34:32.223Z,18976
2017-07-24T07:35:32.228Z,20704
2017-07-24T07:36:32.244Z,23008
2017-07-24T07:37:32.266Z,25280
2017-07-24T07:38:32.261Z,25216
2017-07-24T07:39:31.960Z,23264
2017-07-24T07:40:31.988Z,22112
2017-07-24T07:41:32.011Z,21312
2017-07-24T07:42:32.313Z,21568
2017-07-24T07:43:32.329Z,21600
2017-07-24T07:44:32.063Z,21216
2017-07-24T07:45:32.050Z,20800
2017-07-24T07:46:32.391Z,23264
2017-07-24T07:47:32.382Z,26976
2017-07-24T07:48:32.415Z,27680
2017-07-24T07:49:32.099Z,27424
2017-07-24T07:50:32.445Z,27200
2017-07-24T07:51:32.443Z,28384
2017-07-24T07:52:32.189Z,29920
2017-07-24T07:53:32.180Z,31712
2017-07-24T07:54:32.496Z,34496
2017-07-24T07:55:32.187Z,36320
2017-07-24T07:56:32.221Z,41248
2017-07-24T07:57:32.236Z,43488
2017-07-24T07:58:32.561Z,46144
2017-07-24T07:59:32.251Z,48512
2017-07-24T08:00:32.284Z,50880
2017-07-24T08:01:32.287Z,51808
2017-07-24T08:02:32.628Z,51904
2017-07-24T08:03:32.002Z,51424
2017-07-24T08:04:32.354Z,52672
2017-07-24T08:05:32.044Z,54240
2017-07-24T08:06:32.060Z,55104
2017-07-24T08:07:32.696Z,51296
2017-07-24T08:08:32.730Z,49312
2017-07-24T08:09:32.409Z,46848
2017-07-24T08:10:32.437Z,52832
2017-07-24T08:11:32.147Z,52384
2017-07-24T08:12:32.793Z,58752
2017-07-24T08:13:32.800Z,49280
2017-07-24T08:14:32.810Z,49632
2017-07-24T08:15:32.806Z,50688
2017-07-24T08:16:32.839Z,52992
2017-07-24T08:17:32.214Z,62688
2017-07-24T08:18:32.879Z,54976
2017-07-24T08:19:32.569Z,59616
2017-07-24T08:20:32.912Z,72096
2017-07-24T08:21:32.593Z,71488
2017-07-24T08:22:32.919Z,67360
2017-07-24T08:23:32.942Z,66880
2017-07-24T08:24:32.957Z,71776
2017-07-24T08:25:32.674Z,67136
2017-07-24T08:26:32.961Z,69248
2017-07-24T08:27:32.992Z,63872
2017-07-24T08:28:32.997Z,68896
2017-07-24T08:29:33.039Z,73856
2017-07-24T08:30:32.716Z,79648
2017-07-24T08:31:33.058Z,76864
2017-07-24T08:32:33.056Z,79488
2017-07-24T08:33:33.095Z,75328
2017-07-24T08:34:32.793Z,81280
2017-07-24T08:35:32.800Z,72096
2017-07-24T08:36:32.821Z,60768
2017-07-24T08:37:32.818Z,61920
2017-07-24T08:38:32.841Z,59872
2017-07-24T08:39:32.848Z,60160
2017-07-24T08:40:32.881Z,60896
2017-07-24T08:41:32.919Z,62848
2017-07-24T08:42:33.219Z,61120
2017-07-24T08:43:33.232Z,58368
2017-07-24T08:44:33.223Z,60896
2017-07-24T08:45:33.250Z,64096
2017-07-24T08:46:33.254Z,68352
2017-07-24T08:47:32.980Z,63616
2017-07-24T08:48:32.967Z,60928
2017-07-24T08:49:33.318Z,63296
2017-07-24T08:50:33.322Z,64960
2017-07-24T08:51:33.029Z,60480
2017-07-24T08:52:33.323Z,62272
2017-07-24T08:53:33.378Z,65472
2017-07-24T08:54:33.376Z,70496
2017-07-24T08:55:33.391Z,65984
2017-07-24T08:56:32.772Z,38624
2017-07-24T08:57:32.771Z,15472
2017-07-24T08:58:33.126Z,13512
2017-07-24T08:59:33.141Z,13088
2017-07-24T09:00:32.829Z,12884
2017-07-24T09:01:33.485Z,12720
2017-07-24T09:02:33.479Z,12796
2017-07-24T09:03:33.502Z,12952
2017-07-24T09:04:33.487Z,13008
2017-07-24T09:05:33.512Z,13100
2017-07-24T09:06:33.512Z,13328
2017-07-24T09:07:33.217Z,13436
2017-07-24T09:08:33.545Z,13432
2017-07-24T09:09:33.258Z,13384
2017-07-24T09:10:33.565Z,13564
2017-07-24T09:11:33.573Z,13644
2017-07-24T09:12:33.570Z,13944
2017-07-24T09:13:33.276Z,14420
2017-07-24T09:14:33.666Z,14824
2017-07-24T09:15:33.608Z,14908
2017-07-24T09:16:33.317Z,14992
2017-07-24T09:17:33.615Z,15068
2017-07-24T09:18:33.630Z,15432
2017-07-24T09:19:33.016Z,15976
2017-07-24T09:20:33.654Z,17216
2017-07-24T09:21:33.333Z,18240
2017-07-24T09:22:33.371Z,19136
2017-07-24T09:23:33.037Z,19680
2017-07-24T09:24:33.684Z,20320
2017-07-24T09:25:33.063Z,20576
2017-07-24T09:26:33.083Z,20864
2017-07-24T09:27:33.395Z,21376
2017-07-24T09:28:33.083Z,21856
2017-07-24T09:29:33.706Z,22208
2017-07-24T09:30:33.096Z,22784
2017-07-24T09:31:33.104Z,23168
2017-07-24T09:32:33.120Z,23392
2017-07-24T09:33:33.446Z,23328
2017-07-24T09:34:33.484Z,23328
2017-07-24T09:35:33.132Z,23200
2017-07-24T09:36:33.468Z,22976
2017-07-24T09:37:33.774Z,22752
2017-07-24T09:38:33.477Z,22592
2017-07-24T09:39:33.802Z,22336
2017-07-24T09:40:33.468Z,22112
2017-07-24T09:41:33.831Z,21952
2017-07-24T09:42:33.504Z,21760
2017-07-24T09:43:33.822Z,21504
2017-07-24T09:44:33.828Z,21472
2017-07-24T09:45:33.511Z,21312
2017-07-24T09:46:33.835Z,21248
2017-07-24T09:47:33.863Z,21184
2017-07-24T09:48:33.857Z,21184
2017-07-24T09:49:33.844Z,21248
2017-07-24T09:50:33.866Z,21152
2017-07-24T09:51:33.886Z,20992
2017-07-24T09:52:33.573Z,20864
2017-07-24T09:53:33.582Z,20576
2017-07-24T09:54:33.887Z,20384
2017-07-24T09:55:33.918Z,20160
2017-07-24T09:56:33.899Z,20064
2017-07-24T09:57:33.940Z,20096
2017-07-24T09:58:33.621Z,20128
2017-07-24T09:59:33.947Z,20352
2017-07-24T10:00:33.937Z,20384
2017-07-24T10:01:33.932Z,20160
2017-07-24T10:02:33.965Z,19968
2017-07-24T10:03:33.969Z,20064
2017-07-24T10:04:33.984Z,20192
2017-07-24T10:05:33.983Z,20224
2017-07-24T10:06:33.993Z,20224
2017-07-24T10:07:34.000Z,20160
2017-07-24T10:08:33.702Z,19904
2017-07-24T10:09:33.996Z,19744
2017-07-24T10:10:33.418Z,19520
2017-07-24T10:11:34.029Z,19232
2017-07-24T10:12:34.072Z,18848
2017-07-24T10:13:34.048Z,18688
2017-07-24T10:14:34.043Z,18560
2017-07-24T10:15:34.069Z,18400
2017-07-24T10:16:33.766Z,18560
2017-07-24T10:17:33.768Z,18624
2017-07-24T10:18:34.082Z,18528
2017-07-24T10:19:34.079Z,18208
2017-07-24T10:20:34.099Z,17824
2017-07-24T10:21:33.783Z,17664
2017-07-24T10:22:33.825Z,17728
2017-07-24T10:23:34.096Z,17856
2017-07-24T10:24:34.141Z,17888
2017-07-24T10:25:33.821Z,17984
2017-07-24T10:26:34.155Z,18176
2017-07-24T10:27:34.138Z,18240
2017-07-24T10:28:34.178Z,18336
2017-07-24T10:29:34.151Z,18336
2017-07-24T10:30:33.871Z,18432
2017-07-24T10:31:34.161Z,18432
2017-07-24T10:32:33.893Z,18592
2017-07-24T10:33:34.198Z,18624
2017-07-24T10:34:34.198Z,18688
2017-07-24T10:35:34.200Z,19104
2017-07-24T10:36:34.205Z,19584
2017-07-24T10:37:33.920Z,20160
2017-07-24T10:38:33.908Z,20512
2017-07-24T10:39:34.168Z,20864
2017-07-24T10:40:34.210Z,20992
2017-07-24T10:41:34.261Z,21216
2017-07-24T10:42:34.269Z,21312
2017-07-24T10:43:34.252Z,21280
2017-07-24T10:44:34.521Z,21152
2017-07-24T10:45:34.250Z,21184
2017-07-24T10:46:34.283Z,21120
2017-07-24T10:47:34.307Z,21120
2017-07-24T10:48:34.299Z,21024
2017-07-24T10:49:34.245Z,20800
2017-07-24T10:50:34.313Z,20384
2017-07-24T10:51:34.304Z,19968
2017-07-24T10:52:34.324Z,19648
2017-07-24T10:53:34.347Z,19552
2017-07-24T10:54:34.285Z,19552
2017-07-24T10:55:34.058Z,19648
2017-07-24T10:56:34.342Z,19776
2017-07-24T10:57:34.069Z,19840
2017-07-24T10:58:34.367Z,19872
2017-07-24T10:59:34.325Z,19840
2017-07-24T11:00:34.077Z,19776
2017-07-24T11:01:34.407Z,19712
2017-07-24T11:02:34.091Z,19680
2017-07-24T11:03:34.416Z,19680
2017-07-24T11:04:34.400Z,19648
2017-07-24T11:05:34.091Z,19552
2017-07-24T11:06:34.121Z,19392
2017-07-24T11:07:34.136Z,19136
2017-07-24T11:08:34.442Z,18880
2017-07-24T11:09:34.699Z,18752
2017-07-24T11:10:34.464Z,18592
2017-07-24T11:11:34.172Z,18432
2017-07-24T11:12:34.150Z,18336
2017-07-24T11:13:34.498Z,18208
2017-07-24T11:14:34.725Z,18144
2017-07-24T11:15:34.494Z,17952
2017-07-24T11:16:34.475Z,17888
2017-07-24T11:17:34.526Z,17728
2017-07-24T11:18:34.214Z,17696
2017-07-24T11:19:34.837Z,17728
2017-07-24T11:20:34.528Z,17824
2017-07-24T11:21:34.239Z,18112
2017-07-24T11:22:34.223Z,18176
2017-07-24T11:23:34.252Z,18304
2017-07-24T11:24:34.179Z,18368
2017-07-24T11:25:34.279Z,18464
2017-07-24T11:26:34.587Z,18720
2017-07-24T11:27:34.592Z,18912
2017-07-24T11:28:34.285Z,19136
2017-07-24T11:29:34.847Z,19552
2017-07-24T11:30:34.288Z,19936
2017-07-24T11:31:34.622Z,20256
2017-07-24T11:32:34.282Z,20640
2017-07-24T11:33:34.320Z,21056
2017-07-24T11:34:34.576Z,21504
2017-07-24T11:35:34.630Z,21888
2017-07-24T11:36:34.648Z,22080
2017-07-24T11:37:34.358Z,22176
2017-07-24T11:38:34.652Z,22176
2017-07-24T11:39:34.954Z,22048
2017-07-24T11:40:34.653Z,21856
2017-07-24T11:41:34.074Z,21792
2017-07-24T11:42:34.691Z,21728
2017-07-24T11:43:34.402Z,21760
2017-07-24T11:44:34.641Z,21728
2017-07-24T11:45:34.406Z,21568
2017-07-24T11:46:34.713Z,21472
2017-07-24T11:47:34.748Z,21408
2017-07-24T11:48:34.435Z,21376
2017-07-24T11:49:35.052Z,21344
2017-07-24T11:50:34.439Z,21376
2017-07-24T11:51:34.756Z,21472
2017-07-24T11:52:34.447Z,21600
2017-07-24T11:53:34.757Z,21696
2017-07-24T11:54:34.778Z,21824
2017-07-24T11:55:34.785Z,21920
2017-07-24T11:56:34.808Z,22080
2017-07-24T11:57:34.791Z,22208
2017-07-24T11:58:34.812Z,22304
2017-07-24T11:59:35.076Z,22368
2017-07-24T12:00:34.831Z,22368
2017-07-24T12:01:34.853Z,22368
2017-07-24T12:02:34.836Z,22400
2017-07-24T12:03:34.851Z,22400
2017-07-24T12:04:34.794Z,22400
2017-07-24T12:05:34.868Z,22432
2017-07-24T12:06:34.869Z,22336
2017-07-24T12:07:34.889Z,22240
2017-07-24T12:08:34.878Z,22144
2017-07-24T12:09:35.149Z,22048
2017-07-24T12:10:34.908Z,21984
2017-07-24T12:11:34.920Z,21920
2017-07-24T12:12:34.924Z,21888
2017-07-24T12:13:34.912Z,21856
2017-07-24T12:14:34.925Z,21856
2017-07-24T12:15:34.926Z,21824
2017-07-24T12:16:34.949Z,21792
2017-07-24T12:17:34.639Z,21760
2017-07-24T12:18:34.970Z,21728
2017-07-24T12:19:34.958Z,21632
2017-07-24T12:20:34.981Z,21632
2017-07-24T12:21:34.675Z,21536
2017-07-24T12:22:34.976Z,21536
2017-07-24T12:23:35.003Z,21472
2017-07-24T12:24:34.720Z,21440
2017-07-24T12:25:34.381Z,21376
2017-07-24T12:26:35.017Z,21312
2017-07-24T12:27:34.721Z,21216
2017-07-24T12:28:35.036Z,21152
2017-07-24T12:29:35.044Z,21088
2017-07-24T12:30:35.044Z,21024
2017-07-24T12:31:35.034Z,20992
2017-07-24T12:32:34.767Z,20928
2017-07-24T12:33:35.067Z,20896
2017-07-24T12:34:35.100Z,20896
2017-07-24T12:35:35.087Z,20864
2017-07-24T12:36:34.793Z,20832
2017-07-24T12:37:35.097Z,20832
2017-07-24T12:38:35.097Z,20768
2017-07-24T12:39:34.808Z,20864
2017-07-24T12:40:35.132Z,20928
2017-07-24T12:41:34.838Z,20928
2017-07-24T12:42:35.147Z,20832
2017-07-24T12:43:35.157Z,20832
2017-07-24T12:44:34.844Z,20832
2017-07-24T12:45:35.164Z,20832
2017-07-24T12:46:34.862Z,20736
2017-07-24T12:47:35.195Z,20576
2017-07-24T12:48:35.187Z,20448
2017-07-24T12:49:34.896Z,20256
2017-07-24T12:50:34.887Z,20128
2017-07-24T12:51:35.222Z,20128
2017-07-24T12:52:34.952Z,20128
2017-07-24T12:53:35.220Z,20256
2017-07-24T12:54:34.917Z,20320
2017-07-24T12:55:35.247Z,20384
2017-07-24T12:56:35.264Z,20480
2017-07-24T12:57:35.262Z,20480
2017-07-24T12:58:35.275Z,20288
2017-07-24T12:59:35.251Z,20192
2017-07-24T13:00:34.943Z,20160
2017-07-24T13:01:34.975Z,20160
2017-07-24T13:02:35.295Z,20096
2017-07-24T13:03:35.307Z,19936
2017-07-24T13:04:35.298Z,19744
2017-07-24T13:05:35.338Z,19680
2017-07-24T13:06:35.316Z,19712
2017-07-24T13:07:35.338Z,19776
2017-07-24T13:08:35.335Z,19808
2017-07-24T13:09:35.042Z,19744
2017-07-24T13:10:35.342Z,19616
2017-07-24T13:11:35.355Z,19488
2017-07-24T13:12:35.349Z,19360
2017-07-24T13:13:35.374Z,19232
2017-07-24T13:14:35.065Z,19136
2017-07-24T13:15:35.392Z,19136
2017-07-24T13:16:35.382Z,19136
2017-07-24T13:17:35.411Z,18976
2017-07-24T13:18:35.399Z,19200
2017-07-24T13:19:35.421Z,19200
2017-07-24T13:20:35.419Z,19360
2017-07-24T13:21:35.447Z,19392